sensor_id;sensor_type;location;lat;lon;timestamp;P1;durP1;ratioP1;P2;durP2;ratioP2
2622;SDS011;1321;48.690;9.022;2022-11-20T00:02:15;5.60;;;5.30;;
2622;SDS011;1321;48.690;9.022;2022-11-20T00:04:44;5.30;;;5.10;;
2622;SDS011;1321;48.690;9.022;2022-11-20T00:07:13;5.67;;;5.37;;
2622;SDS011;1321;48.690;9.022;2022-11-20T00:09:42;5.43;;;5.13;;
2622;SDS011;1321;48.690;9.022;2022-11-20T00:12:10;5.50;;;5.30;;
2622;SDS011;1321;48.690;9.022;2022-11-20T00:14:38;5.30;;;5.00;;
2622;SDS011;1321;48.690;9.022;2022-11-20T00:17:07;5.17;;;4.87;;
2622;SDS011;1321;48.690;9.022;2022-11-20T00:19:35;5.00;;;4.80;;
2622;SDS011;1321;48.690;9.022;2022-11-20T00:22:03;6.40;;;5.80;;
2622;SDS011;1321;48.690;9.022;2022-11-20T00:24:33;5.60;;;5.20;;
2622;SDS011;1321;48.690;9.022;2022-11-20T00:27:08;6.17;;;5.80;;
2622;SDS011;1321;48.690;9.022;2022-11-20T00:29:36;6.50;;;6.10;;
2622;SDS011;1321;48.690;9.022;2022-11-20T00:32:04;6.33;;;5.90;;
2622;SDS011;1321;48.690;9.022;2022-11-20T00:34:32;5.87;;;5.57;;
2622;SDS011;1321;48.690;9.022;2022-11-20T00:37:00;5.63;;;5.33;;
2622;SDS011;1321;48.690;9.022;2022-11-20T00:39:29;5.30;;;5.00;;
2622;SDS011;1321;48.690;9.022;2022-11-20T00:41:58;5.37;;;5.07;;
2622;SDS011;1321;48.690;9.022;2022-11-20T00:44:26;5.30;;;4.90;;
2622;SDS011;1321;48.690;9.022;2022-11-20T00:46:55;5.07;;;4.87;;
2622;SDS011;1321;48.690;9.022;2022-11-20T00:49:23;5.80;;;5.43;;
2622;SDS011;1321;48.690;9.022;2022-11-20T00:51:51;5.07;;;4.87;;
2622;SDS011;1321;48.690;9.022;2022-11-20T00:54:19;5.30;;;5.10;;
2622;SDS011;1321;48.690;9.022;2022-11-20T00:56:47;5.13;;;4.83;;
2622;SDS011;1321;48.690;9.022;2022-11-20T00:59:17;4.47;;;4.37;;
2622;SDS011;1321;48.690;9.022;2022-11-20T01:01:45;4.80;;;4.60;;
2622;SDS011;1321;48.690;9.022;2022-11-20T01:04:14;4.73;;;4.53;;
2622;SDS011;1321;48.690;9.022;2022-11-20T01:06:42;4.80;;;4.60;;
2622;SDS011;1321;48.690;9.022;2022-11-20T01:09:11;4.80;;;4.47;;
2622;SDS011;1321;48.690;9.022;2022-11-20T01:11:41;5.03;;;4.73;;
2622;SDS011;1321;48.690;9.022;2022-11-20T01:14:12;4.37;;;4.23;;
2622;SDS011;1321;48.690;9.022;2022-11-20T01:16:44;5.30;;;5.00;;
2622;SDS011;1321;48.690;9.022;2022-11-20T01:19:15;4.97;;;4.77;;
2622;SDS011;1321;48.690;9.022;2022-11-20T01:21:47;5.10;;;4.77;;
2622;SDS011;1321;48.690;9.022;2022-11-20T01:24:18;4.37;;;4.17;;
2622;SDS011;1321;48.690;9.022;2022-11-20T01:26:48;4.63;;;4.43;;
2622;SDS011;1321;48.690;9.022;2022-11-20T01:29:18;4.43;;;4.33;;
2622;SDS011;1321;48.690;9.022;2022-11-20T01:31:50;5.07;;;4.67;;
2622;SDS011;1321;48.690;9.022;2022-11-20T01:34:19;4.23;;;4.00;;
2622;SDS011;1321;48.690;9.022;2022-11-20T01:36:49;4.20;;;4.10;;
2622;SDS011;1321;48.690;9.022;2022-11-20T01:39:19;4.17;;;3.97;;
2622;SDS011;1321;48.690;9.022;2022-11-20T01:41:49;4.27;;;4.17;;
2622;SDS011;1321;48.690;9.022;2022-11-20T01:44:49;4.13;;;3.93;;
2622;SDS011;1321;48.690;9.022;2022-11-20T01:47:22;4.10;;;4.00;;
2622;SDS011;1321;48.690;9.022;2022-11-20T01:49:55;4.80;;;4.60;;
2622;SDS011;1321;48.690;9.022;2022-11-20T01:52:27;4.50;;;4.40;;
2622;SDS011;1321;48.690;9.022;2022-11-20T01:55:01;4.27;;;4.10;;
2622;SDS011;1321;48.690;9.022;2022-11-20T01:57:33;4.77;;;4.30;;
2622;SDS011;1321;48.690;9.022;2022-11-20T02:00:04;4.80;;;4.50;;
2622;SDS011;1321;48.690;9.022;2022-11-20T02:02:36;4.87;;;4.63;;
2622;SDS011;1321;48.690;9.022;2022-11-20T02:05:09;4.30;;;4.00;;
2622;SDS011;1321;48.690;9.022;2022-11-20T02:07:44;4.80;;;4.23;;
2622;SDS011;1321;48.690;9.022;2022-11-20T02:10:13;4.53;;;4.33;;
2622;SDS011;1321;48.690;9.022;2022-11-20T02:12:42;4.70;;;4.40;;
2622;SDS011;1321;48.690;9.022;2022-11-20T02:15:28;3.97;;;3.87;;
2622;SDS011;1321;48.690;9.022;2022-11-20T02:17:57;4.23;;;3.93;;
2622;SDS011;1321;48.690;9.022;2022-11-20T02:20:26;4.30;;;4.10;;
2622;SDS011;1321;48.690;9.022;2022-11-20T02:22:55;3.87;;;3.67;;
2622;SDS011;1321;48.690;9.022;2022-11-20T02:25:28;4.33;;;4.17;;
2622;SDS011;1321;48.690;9.022;2022-11-20T02:27:57;4.30;;;4.10;;
2622;SDS011;1321;48.690;9.022;2022-11-20T02:30:25;4.87;;;4.67;;
2622;SDS011;1321;48.690;9.022;2022-11-20T02:32:53;4.40;;;4.20;;
2622;SDS011;1321;48.690;9.022;2022-11-20T02:38:09;5.53;;;5.23;;
2622;SDS011;1321;48.690;9.022;2022-11-20T02:40:39;5.00;;;4.80;;
2622;SDS011;1321;48.690;9.022;2022-11-20T02:43:08;6.33;;;5.73;;
2622;SDS011;1321;48.690;9.022;2022-11-20T02:45:37;5.27;;;5.07;;
2622;SDS011;1321;48.690;9.022;2022-11-20T02:48:05;5.80;;;5.40;;
2622;SDS011;1321;48.690;9.022;2022-11-20T02:50:36;6.00;;;5.60;;
2622;SDS011;1321;48.690;9.022;2022-11-20T02:53:06;5.57;;;5.23;;
2622;SDS011;1321;48.690;9.022;2022-11-20T02:55:34;5.50;;;5.20;;
2622;SDS011;1321;48.690;9.022;2022-11-20T02:58:04;5.90;;;5.60;;
2622;SDS011;1321;48.690;9.022;2022-11-20T03:00:32;6.23;;;5.93;;
2622;SDS011;1321;48.690;9.022;2022-11-20T03:03:01;6.23;;;5.70;;
2622;SDS011;1321;48.690;9.022;2022-11-20T03:05:29;6.10;;;5.70;;
2622;SDS011;1321;48.690;9.022;2022-11-20T03:07:58;6.10;;;5.70;;
2622;SDS011;1321;48.690;9.022;2022-11-20T03:10:26;5.23;;;5.03;;
2622;SDS011;1321;48.690;9.022;2022-11-20T03:12:54;5.83;;;5.53;;
2622;SDS011;1321;48.690;9.022;2022-11-20T03:15:24;6.03;;;5.57;;
2622;SDS011;1321;48.690;9.022;2022-11-20T03:17:53;5.60;;;5.40;;
2622;SDS011;1321;48.690;9.022;2022-11-20T03:20:22;6.30;;;5.80;;
2622;SDS011;1321;48.690;9.022;2022-11-20T03:22:50;6.13;;;5.73;;
2622;SDS011;1321;48.690;9.022;2022-11-20T03:25:20;5.97;;;5.60;;
2622;SDS011;1321;48.690;9.022;2022-11-20T03:27:48;6.40;;;6.00;;
2622;SDS011;1321;48.690;9.022;2022-11-20T03:30:17;5.53;;;5.33;;
2622;SDS011;1321;48.690;9.022;2022-11-20T03:32:46;6.37;;;5.87;;
2622;SDS011;1321;48.690;9.022;2022-11-20T03:35:15;5.77;;;5.43;;
2622;SDS011;1321;48.690;9.022;2022-11-20T03:37:44;5.93;;;5.63;;
2622;SDS011;1321;48.690;9.022;2022-11-20T03:40:12;6.07;;;5.67;;
2622;SDS011;1321;48.690;9.022;2022-11-20T03:42:41;5.50;;;5.20;;
2622;SDS011;1321;48.690;9.022;2022-11-20T03:45:15;5.30;;;5.00;;
2622;SDS011;1321;48.690;9.022;2022-11-20T03:47:44;4.97;;;4.77;;
2622;SDS011;1321;48.690;9.022;2022-11-20T03:50:14;5.30;;;4.97;;
2622;SDS011;1321;48.690;9.022;2022-11-20T03:52:42;5.73;;;5.17;;
2622;SDS011;1321;48.690;9.022;2022-11-20T03:55:10;9.10;;;8.03;;
2622;SDS011;1321;48.690;9.022;2022-11-20T03:57:39;6.10;;;5.70;;
2622;SDS011;1321;48.690;9.022;2022-11-20T04:00:07;5.13;;;4.77;;
2622;SDS011;1321;48.690;9.022;2022-11-20T04:02:36;5.20;;;4.80;;
2622;SDS011;1321;48.690;9.022;2022-11-20T04:05:06;5.80;;;5.37;;
2622;SDS011;1321;48.690;9.022;2022-11-20T04:07:35;6.30;;;5.90;;
2622;SDS011;1321;48.690;9.022;2022-11-20T04:10:03;5.70;;;5.33;;
2622;SDS011;1321;48.690;9.022;2022-11-20T04:12:32;6.03;;;5.60;;
2622;SDS011;1321;48.690;9.022;2022-11-20T04:15:01;6.10;;;5.70;;
2622;SDS011;1321;48.690;9.022;2022-11-20T04:17:29;5.03;;;4.83;;
2622;SDS011;1321;48.690;9.022;2022-11-20T04:19:57;5.53;;;5.23;;
2622;SDS011;1321;48.690;9.022;2022-11-20T04:22:26;5.37;;;5.13;;
2622;SDS011;1321;48.690;9.022;2022-11-20T04:24:54;4.87;;;4.67;;
2622;SDS011;1321;48.690;9.022;2022-11-20T04:27:22;5.93;;;5.27;;
2622;SDS011;1321;48.690;9.022;2022-11-20T04:29:51;5.30;;;5.00;;
2622;SDS011;1321;48.690;9.022;2022-11-20T04:32:19;5.70;;;5.30;;
2622;SDS011;1321;48.690;9.022;2022-11-20T04:34:47;5.37;;;5.07;;
2622;SDS011;1321;48.690;9.022;2022-11-20T04:37:15;6.23;;;5.83;;
2622;SDS011;1321;48.690;9.022;2022-11-20T04:39:45;5.17;;;4.87;;
2622;SDS011;1321;48.690;9.022;2022-11-20T04:42:13;5.47;;;5.27;;
2622;SDS011;1321;48.690;9.022;2022-11-20T04:44:56;6.03;;;5.73;;
2622;SDS011;1321;48.690;9.022;2022-11-20T04:47:24;5.30;;;4.83;;
2622;SDS011;1321;48.690;9.022;2022-11-20T04:49:52;5.90;;;5.60;;
2622;SDS011;1321;48.690;9.022;2022-11-20T04:52:21;5.37;;;5.17;;
2622;SDS011;1321;48.690;9.022;2022-11-20T04:54:50;5.27;;;5.07;;
2622;SDS011;1321;48.690;9.022;2022-11-20T04:57:20;5.50;;;5.20;;
2622;SDS011;1321;48.690;9.022;2022-11-20T04:59:48;5.20;;;5.00;;
2622;SDS011;1321;48.690;9.022;2022-11-20T05:02:17;5.50;;;5.00;;
2622;SDS011;1321;48.690;9.022;2022-11-20T05:04:45;6.43;;;6.10;;
2622;SDS011;1321;48.690;9.022;2022-11-20T05:07:13;5.87;;;5.57;;
2622;SDS011;1321;48.690;9.022;2022-11-20T05:09:41;5.47;;;5.17;;
2622;SDS011;1321;48.690;9.022;2022-11-20T05:12:11;5.53;;;5.03;;
2622;SDS011;1321;48.690;9.022;2022-11-20T05:14:39;5.57;;;5.27;;
2622;SDS011;1321;48.690;9.022;2022-11-20T05:17:09;5.40;;;5.00;;
2622;SDS011;1321;48.690;9.022;2022-11-20T05:19:38;6.23;;;5.80;;
2622;SDS011;1321;48.690;9.022;2022-11-20T05:22:06;5.50;;;5.00;;
2622;SDS011;1321;48.690;9.022;2022-11-20T05:24:34;5.37;;;5.17;;
2622;SDS011;1321;48.690;9.022;2022-11-20T05:27:02;5.80;;;5.50;;
2622;SDS011;1321;48.690;9.022;2022-11-20T05:29:32;5.83;;;5.37;;
2622;SDS011;1321;48.690;9.022;2022-11-20T05:32:00;5.80;;;5.50;;
2622;SDS011;1321;48.690;9.022;2022-11-20T05:34:28;5.30;;;5.00;;
2622;SDS011;1321;48.690;9.022;2022-11-20T05:36:56;5.83;;;5.43;;
2622;SDS011;1321;48.690;9.022;2022-11-20T05:39:24;5.00;;;4.83;;
2622;SDS011;1321;48.690;9.022;2022-11-20T05:41:52;5.80;;;5.53;;
2622;SDS011;1321;48.690;9.022;2022-11-20T05:44:36;6.00;;;5.53;;
2622;SDS011;1321;48.690;9.022;2022-11-20T05:47:04;4.87;;;4.67;;
2622;SDS011;1321;48.690;9.022;2022-11-20T05:49:32;4.73;;;4.53;;
2622;SDS011;1321;48.690;9.022;2022-11-20T05:52:00;6.23;;;5.83;;
2622;SDS011;1321;48.690;9.022;2022-11-20T05:54:28;5.07;;;4.87;;
2622;SDS011;1321;48.690;9.022;2022-11-20T05:56:57;5.63;;;5.33;;
2622;SDS011;1321;48.690;9.022;2022-11-20T05:59:26;5.00;;;4.80;;
2622;SDS011;1321;48.690;9.022;2022-11-20T06:01:55;4.80;;;4.60;;
2622;SDS011;1321;48.690;9.022;2022-11-20T06:04:23;5.70;;;5.40;;
2622;SDS011;1321;48.690;9.022;2022-11-20T06:06:52;5.13;;;4.83;;
2622;SDS011;1321;48.690;9.022;2022-11-20T06:09:20;6.30;;;5.30;;
2622;SDS011;1321;48.690;9.022;2022-11-20T06:11:49;5.00;;;4.80;;
2622;SDS011;1321;48.690;9.022;2022-11-20T06:14:17;5.77;;;5.57;;
2622;SDS011;1321;48.690;9.022;2022-11-20T06:16:45;5.53;;;5.23;;
2622;SDS011;1321;48.690;9.022;2022-11-20T06:19:15;5.17;;;4.97;;
2622;SDS011;1321;48.690;9.022;2022-11-20T06:21:43;5.37;;;5.10;;
2622;SDS011;1321;48.690;9.022;2022-11-20T06:24:12;5.30;;;5.10;;
2622;SDS011;1321;48.690;9.022;2022-11-20T06:26:40;5.33;;;5.10;;
2622;SDS011;1321;48.690;9.022;2022-11-20T06:29:08;5.00;;;4.77;;
2622;SDS011;1321;48.690;9.022;2022-11-20T06:31:37;5.80;;;5.40;;
2622;SDS011;1321;48.690;9.022;2022-11-20T06:34:05;5.17;;;4.87;;
2622;SDS011;1321;48.690;9.022;2022-11-20T06:36:35;4.90;;;4.70;;
2622;SDS011;1321;48.690;9.022;2022-11-20T06:39:03;5.50;;;5.20;;
2622;SDS011;1321;48.690;9.022;2022-11-20T06:41:31;5.30;;;5.10;;
2622;SDS011;1321;48.690;9.022;2022-11-20T06:43:59;5.20;;;5.00;;
2622;SDS011;1321;48.690;9.022;2022-11-20T06:46:28;4.90;;;4.80;;
2622;SDS011;1321;48.690;9.022;2022-11-20T06:48:56;5.00;;;4.80;;
2622;SDS011;1321;48.690;9.022;2022-11-20T06:51:24;5.27;;;5.07;;
2622;SDS011;1321;48.690;9.022;2022-11-20T06:53:54;5.97;;;5.67;;
2622;SDS011;1321;48.690;9.022;2022-11-20T06:56:22;5.27;;;4.97;;
2622;SDS011;1321;48.690;9.022;2022-11-20T06:58:50;5.23;;;4.93;;
2622;SDS011;1321;48.690;9.022;2022-11-20T07:01:18;5.03;;;4.70;;
2622;SDS011;1321;48.690;9.022;2022-11-20T07:03:48;4.97;;;4.77;;
2622;SDS011;1321;48.690;9.022;2022-11-20T07:06:20;4.90;;;4.70;;
2622;SDS011;1321;48.690;9.022;2022-11-20T07:08:49;5.47;;;5.17;;
2622;SDS011;1321;48.690;9.022;2022-11-20T07:11:19;5.43;;;5.13;;
2622;SDS011;1321;48.690;9.022;2022-11-20T07:13:47;4.73;;;4.63;;
2622;SDS011;1321;48.690;9.022;2022-11-20T07:16:15;4.67;;;4.57;;
2622;SDS011;1321;48.690;9.022;2022-11-20T07:18:44;4.70;;;4.50;;
2622;SDS011;1321;48.690;9.022;2022-11-20T07:21:16;4.73;;;4.53;;
2622;SDS011;1321;48.690;9.022;2022-11-20T07:23:44;5.40;;;5.20;;
2622;SDS011;1321;48.690;9.022;2022-11-20T07:26:12;5.10;;;4.90;;
2622;SDS011;1321;48.690;9.022;2022-11-20T07:28:43;5.40;;;4.90;;
2622;SDS011;1321;48.690;9.022;2022-11-20T07:31:11;4.43;;;4.33;;
2622;SDS011;1321;48.690;9.022;2022-11-20T07:33:44;4.90;;;4.70;;
2622;SDS011;1321;48.690;9.022;2022-11-20T07:36:12;4.70;;;4.60;;
2622;SDS011;1321;48.690;9.022;2022-11-20T07:38:40;4.93;;;4.73;;
2622;SDS011;1321;48.690;9.022;2022-11-20T07:41:08;5.10;;;4.90;;
2622;SDS011;1321;48.690;9.022;2022-11-20T07:43:37;4.60;;;4.50;;
2622;SDS011;1321;48.690;9.022;2022-11-20T07:46:08;5.67;;;5.37;;
2622;SDS011;1321;48.690;9.022;2022-11-20T07:48:36;6.13;;;5.83;;
2622;SDS011;1321;48.690;9.022;2022-11-20T07:51:04;4.70;;;4.60;;
2622;SDS011;1321;48.690;9.022;2022-11-20T07:53:33;5.07;;;4.80;;
2622;SDS011;1321;48.690;9.022;2022-11-20T07:56:01;4.87;;;4.70;;
2622;SDS011;1321;48.690;9.022;2022-11-20T07:58:30;5.23;;;5.07;;
2622;SDS011;1321;48.690;9.022;2022-11-20T08:01:01;6.40;;;6.00;;
2622;SDS011;1321;48.690;9.022;2022-11-20T08:03:31;5.80;;;5.53;;
2622;SDS011;1321;48.690;9.022;2022-11-20T08:06:00;5.07;;;4.87;;
2622;SDS011;1321;48.690;9.022;2022-11-20T08:08:29;5.20;;;4.90;;
2622;SDS011;1321;48.690;9.022;2022-11-20T08:10:59;4.80;;;4.70;;
2622;SDS011;1321;48.690;9.022;2022-11-20T08:13:41;5.30;;;5.10;;
2622;SDS011;1321;48.690;9.022;2022-11-20T08:16:27;5.30;;;5.10;;
2622;SDS011;1321;48.690;9.022;2022-11-20T08:18:57;5.00;;;4.83;;
2622;SDS011;1321;48.690;9.022;2022-11-20T08:21:25;5.50;;;5.30;;
2622;SDS011;1321;48.690;9.022;2022-11-20T08:23:53;5.47;;;5.17;;
2622;SDS011;1321;48.690;9.022;2022-11-20T08:26:21;5.20;;;5.03;;
2622;SDS011;1321;48.690;9.022;2022-11-20T08:28:52;5.30;;;5.10;;
2622;SDS011;1321;48.690;9.022;2022-11-20T08:31:22;5.63;;;5.40;;
2622;SDS011;1321;48.690;9.022;2022-11-20T08:33:50;5.40;;;5.20;;
2622;SDS011;1321;48.690;9.022;2022-11-20T08:36:21;5.43;;;5.00;;
2622;SDS011;1321;48.690;9.022;2022-11-20T08:38:50;5.50;;;5.30;;
2622;SDS011;1321;48.690;9.022;2022-11-20T08:41:20;5.57;;;5.37;;
2622;SDS011;1321;48.690;9.022;2022-11-20T08:43:53;6.03;;;5.80;;
2622;SDS011;1321;48.690;9.022;2022-11-20T08:46:23;6.90;;;6.50;;
2622;SDS011;1321;48.690;9.022;2022-11-20T08:48:52;5.63;;;5.43;;
2622;SDS011;1321;48.690;9.022;2022-11-20T08:51:22;6.07;;;5.87;;
2622;SDS011;1321;48.690;9.022;2022-11-20T08:53:50;5.70;;;5.50;;
2622;SDS011;1321;48.690;9.022;2022-11-20T08:56:18;5.80;;;5.50;;
2622;SDS011;1321;48.690;9.022;2022-11-20T08:58:49;6.40;;;6.23;;
2622;SDS011;1321;48.690;9.022;2022-11-20T09:01:39;6.17;;;5.97;;
2622;SDS011;1321;48.690;9.022;2022-11-20T09:04:07;5.73;;;5.53;;
2622;SDS011;1321;48.690;9.022;2022-11-20T09:06:36;5.40;;;5.27;;
2622;SDS011;1321;48.690;9.022;2022-11-20T09:09:04;6.03;;;5.83;;
2622;SDS011;1321;48.690;9.022;2022-11-20T09:11:34;5.23;;;5.13;;
2622;SDS011;1321;48.690;9.022;2022-11-20T09:14:02;5.47;;;5.27;;
2622;SDS011;1321;48.690;9.022;2022-11-20T09:16:30;5.83;;;5.63;;
2622;SDS011;1321;48.690;9.022;2022-11-20T09:18:59;5.20;;;5.10;;
2622;SDS011;1321;48.690;9.022;2022-11-20T09:21:48;5.97;;;5.77;;
2622;SDS011;1321;48.690;9.022;2022-11-20T09:24:22;5.70;;;5.40;;
2622;SDS011;1321;48.690;9.022;2022-11-20T09:26:50;5.97;;;5.77;;
2622;SDS011;1321;48.690;9.022;2022-11-20T09:29:18;4.97;;;4.87;;
2622;SDS011;1321;48.690;9.022;2022-11-20T09:31:46;5.20;;;5.10;;
2622;SDS011;1321;48.690;9.022;2022-11-20T09:34:14;5.40;;;5.20;;
2622;SDS011;1321;48.690;9.022;2022-11-20T09:36:43;7.00;;;6.70;;
2622;SDS011;1321;48.690;9.022;2022-11-20T09:39:13;6.20;;;6.00;;
2622;SDS011;1321;48.690;9.022;2022-11-20T09:44:36;5.13;;;5.03;;
2622;SDS011;1321;48.690;9.022;2022-11-20T09:47:18;4.90;;;4.80;;
2622;SDS011;1321;48.690;9.022;2022-11-20T09:49:59;5.07;;;4.97;;
2622;SDS011;1321;48.690;9.022;2022-11-20T09:52:45;4.60;;;4.50;;
2622;SDS011;1321;48.690;9.022;2022-11-20T09:55:23;5.07;;;4.97;;
2622;SDS011;1321;48.690;9.022;2022-11-20T09:57:52;5.13;;;4.93;;
2622;SDS011;1321;48.690;9.022;2022-11-20T10:00:22;5.50;;;5.30;;
2622;SDS011;1321;48.690;9.022;2022-11-20T10:02:52;4.60;;;4.50;;
2622;SDS011;1321;48.690;9.022;2022-11-20T10:05:25;4.90;;;4.80;;
2622;SDS011;1321;48.690;9.022;2022-11-20T10:07:59;5.20;;;5.10;;
2622;SDS011;1321;48.690;9.022;2022-11-20T10:10:42;5.50;;;5.40;;
2622;SDS011;1321;48.690;9.022;2022-11-20T10:13:27;5.13;;;5.03;;
2622;SDS011;1321;48.690;9.022;2022-11-20T10:16:08;6.27;;;6.17;;
2622;SDS011;1321;48.690;9.022;2022-11-20T10:18:52;5.50;;;5.40;;
2622;SDS011;1321;48.690;9.022;2022-11-20T10:21:30;5.13;;;5.03;;
2622;SDS011;1321;48.690;9.022;2022-11-20T10:27:09;5.30;;;5.20;;
2622;SDS011;1321;48.690;9.022;2022-11-20T10:29:57;7.37;;;7.07;;
2622;SDS011;1321;48.690;9.022;2022-11-20T10:32:30;6.20;;;6.03;;
2622;SDS011;1321;48.690;9.022;2022-11-20T10:35:04;5.60;;;5.50;;
2622;SDS011;1321;48.690;9.022;2022-11-20T10:37:42;6.20;;;6.00;;
2622;SDS011;1321;48.690;9.022;2022-11-20T10:40:18;6.00;;;5.80;;
2622;SDS011;1321;48.690;9.022;2022-11-20T10:42:52;5.83;;;5.73;;
2622;SDS011;1321;48.690;9.022;2022-11-20T10:45:36;6.20;;;6.00;;
2622;SDS011;1321;48.690;9.022;2022-11-20T10:48:15;6.10;;;6.00;;
2622;SDS011;1321;48.690;9.022;2022-11-20T10:50:48;6.67;;;6.47;;
2622;SDS011;1321;48.690;9.022;2022-11-20T10:53:27;7.20;;;6.90;;
2622;SDS011;1321;48.690;9.022;2022-11-20T10:56:16;6.30;;;6.20;;
2622;SDS011;1321;48.690;9.022;2022-11-20T10:58:52;6.73;;;6.63;;
2622;SDS011;1321;48.690;9.022;2022-11-20T11:01:30;6.00;;;5.90;;
2622;SDS011;1321;48.690;9.022;2022-11-20T11:03:58;6.70;;;6.40;;
2622;SDS011;1321;48.690;9.022;2022-11-20T11:06:28;6.50;;;6.30;;
2622;SDS011;1321;48.690;9.022;2022-11-20T11:09:04;6.63;;;6.43;;
2622;SDS011;1321;48.690;9.022;2022-11-20T11:11:39;6.80;;;6.70;;
2622;SDS011;1321;48.690;9.022;2022-11-20T11:14:10;7.23;;;7.03;;
2622;SDS011;1321;48.690;9.022;2022-11-20T11:16:48;7.20;;;7.00;;
2622;SDS011;1321;48.690;9.022;2022-11-20T11:19:18;8.00;;;7.70;;
2622;SDS011;1321;48.690;9.022;2022-11-20T11:21:47;9.83;;;9.23;;
2622;SDS011;1321;48.690;9.022;2022-11-20T11:24:21;8.03;;;7.80;;
2622;SDS011;1321;48.690;9.022;2022-11-20T11:27:11;7.77;;;7.57;;
2622;SDS011;1321;48.690;9.022;2022-11-20T11:29:44;7.63;;;7.40;;
2622;SDS011;1321;48.690;9.022;2022-11-20T11:32:13;8.00;;;7.80;;
2622;SDS011;1321;48.690;9.022;2022-11-20T11:34:43;7.90;;;7.70;;
2622;SDS011;1321;48.690;9.022;2022-11-20T11:37:13;7.90;;;7.60;;
2622;SDS011;1321;48.690;9.022;2022-11-20T11:39:46;8.40;;;8.20;;
2622;SDS011;1321;48.690;9.022;2022-11-20T11:42:34;8.00;;;7.80;;
2622;SDS011;1321;48.690;9.022;2022-11-20T11:45:13;8.00;;;7.80;;
2622;SDS011;1321;48.690;9.022;2022-11-20T11:47:44;8.40;;;8.20;;
2622;SDS011;1321;48.690;9.022;2022-11-20T11:50:18;8.97;;;8.67;;
2622;SDS011;1321;48.690;9.022;2022-11-20T11:52:51;9.50;;;9.20;;
2622;SDS011;1321;48.690;9.022;2022-11-20T11:55:29;8.47;;;8.27;;
2622;SDS011;1321;48.690;9.022;2022-11-20T11:58:04;7.57;;;7.27;;
2622;SDS011;1321;48.690;9.022;2022-11-20T12:00:45;7.90;;;7.60;;
2622;SDS011;1321;48.690;9.022;2022-11-20T12:03:19;6.90;;;6.73;;
2622;SDS011;1321;48.690;9.022;2022-11-20T12:05:55;7.60;;;7.20;;
2622;SDS011;1321;48.690;9.022;2022-11-20T12:08:27;6.70;;;6.50;;
2622;SDS011;1321;48.690;9.022;2022-11-20T12:11:02;5.70;;;5.50;;
2622;SDS011;1321;48.690;9.022;2022-11-20T12:13:40;5.27;;;5.10;;
2622;SDS011;1321;48.690;9.022;2022-11-20T12:16:14;5.40;;;5.20;;
2622;SDS011;1321;48.690;9.022;2022-11-20T12:18:45;5.07;;;4.97;;
2622;SDS011;1321;48.690;9.022;2022-11-20T12:21:20;5.57;;;5.37;;
2622;SDS011;1321;48.690;9.022;2022-11-20T12:26:52;4.47;;;4.27;;
2622;SDS011;1321;48.690;9.022;2022-11-20T12:29:36;4.60;;;4.40;;
2622;SDS011;1321;48.690;9.022;2022-11-20T12:32:25;4.20;;;4.10;;
2622;SDS011;1321;48.690;9.022;2022-11-20T12:35:11;4.80;;;4.50;;
2622;SDS011;1321;48.690;9.022;2022-11-20T12:37:52;4.57;;;4.27;;
2622;SDS011;1321;48.690;9.022;2022-11-20T12:40:34;4.67;;;4.47;;
2622;SDS011;1321;48.690;9.022;2022-11-20T12:43:11;4.40;;;4.30;;
2622;SDS011;1321;48.690;9.022;2022-11-20T12:46:07;4.40;;;4.20;;
2622;SDS011;1321;48.690;9.022;2022-11-20T12:48:44;4.00;;;3.90;;
2622;SDS011;1321;48.690;9.022;2022-11-20T12:51:43;3.37;;;3.27;;
2622;SDS011;1321;48.690;9.022;2022-11-20T12:54:34;4.03;;;3.93;;
2622;SDS011;1321;48.690;9.022;2022-11-20T12:57:29;4.20;;;3.97;;
2622;SDS011;1321;48.690;9.022;2022-11-20T13:00:08;3.90;;;3.80;;
2622;SDS011;1321;48.690;9.022;2022-11-20T13:02:46;4.27;;;4.13;;
2622;SDS011;1321;48.690;9.022;2022-11-20T13:05:43;4.10;;;3.90;;
2622;SDS011;1321;48.690;9.022;2022-11-20T13:08:20;4.00;;;3.67;;
2622;SDS011;1321;48.690;9.022;2022-11-20T13:10:54;3.47;;;3.37;;
2622;SDS011;1321;48.690;9.022;2022-11-20T13:13:29;4.10;;;3.90;;
2622;SDS011;1321;48.690;9.022;2022-11-20T13:16:04;3.63;;;3.43;;
2622;SDS011;1321;48.690;9.022;2022-11-20T13:18:39;3.80;;;3.70;;
2622;SDS011;1321;48.690;9.022;2022-11-20T13:21:16;3.43;;;3.33;;
2622;SDS011;1321;48.690;9.022;2022-11-20T13:23:47;3.50;;;3.40;;
2622;SDS011;1321;48.690;9.022;2022-11-20T13:26:17;2.90;;;2.80;;
2622;SDS011;1321;48.690;9.022;2022-11-20T13:28:58;3.07;;;2.87;;
2622;SDS011;1321;48.690;9.022;2022-11-20T13:31:30;3.37;;;3.20;;
2622;SDS011;1321;48.690;9.022;2022-11-20T13:34:01;3.00;;;2.90;;
2622;SDS011;1321;48.690;9.022;2022-11-20T13:36:32;2.60;;;2.40;;
2622;SDS011;1321;48.690;9.022;2022-11-20T13:39:02;3.63;;;3.43;;
2622;SDS011;1321;48.690;9.022;2022-11-20T13:41:31;3.37;;;3.27;;
2622;SDS011;1321;48.690;9.022;2022-11-20T13:44:05;3.60;;;3.50;;
2622;SDS011;1321;48.690;9.022;2022-11-20T13:46:40;3.80;;;3.50;;
2622;SDS011;1321;48.690;9.022;2022-11-20T13:49:16;2.90;;;2.80;;
2622;SDS011;1321;48.690;9.022;2022-11-20T13:51:57;3.50;;;3.30;;
2622;SDS011;1321;48.690;9.022;2022-11-20T13:57:37;2.70;;;2.50;;
2622;SDS011;1321;48.690;9.022;2022-11-20T14:00:21;2.30;;;2.20;;
2622;SDS011;1321;48.690;9.022;2022-11-20T14:02:57;3.00;;;2.70;;
2622;SDS011;1321;48.690;9.022;2022-11-20T14:05:34;2.60;;;2.50;;
2622;SDS011;1321;48.690;9.022;2022-11-20T14:08:06;3.00;;;2.80;;
2622;SDS011;1321;48.690;9.022;2022-11-20T14:10:41;3.40;;;3.10;;
2622;SDS011;1321;48.690;9.022;2022-11-20T14:13:10;3.10;;;2.90;;
2622;SDS011;1321;48.690;9.022;2022-11-20T14:15:40;2.83;;;2.73;;
2622;SDS011;1321;48.690;9.022;2022-11-20T14:18:11;3.13;;;3.03;;
2622;SDS011;1321;48.690;9.022;2022-11-20T14:20:41;4.90;;;3.27;;
2622;SDS011;1321;48.690;9.022;2022-11-20T14:23:12;2.93;;;2.73;;
2622;SDS011;1321;48.690;9.022;2022-11-20T14:25:41;3.03;;;2.93;;
2622;SDS011;1321;48.690;9.022;2022-11-20T14:28:18;2.90;;;2.63;;
2622;SDS011;1321;48.690;9.022;2022-11-20T14:30:52;3.00;;;2.80;;
2622;SDS011;1321;48.690;9.022;2022-11-20T14:33:21;3.47;;;3.27;;
2622;SDS011;1321;48.690;9.022;2022-11-20T14:35:52;3.30;;;3.10;;
2622;SDS011;1321;48.690;9.022;2022-11-20T14:38:25;3.23;;;3.13;;
2622;SDS011;1321;48.690;9.022;2022-11-20T14:41:05;3.27;;;3.17;;
2622;SDS011;1321;48.690;9.022;2022-11-20T14:43:34;3.30;;;3.20;;
2622;SDS011;1321;48.690;9.022;2022-11-20T14:46:05;3.50;;;3.40;;
2622;SDS011;1321;48.690;9.022;2022-11-20T14:48:37;4.07;;;3.83;;
2622;SDS011;1321;48.690;9.022;2022-11-20T14:51:08;3.87;;;3.77;;
2622;SDS011;1321;48.690;9.022;2022-11-20T14:53:39;5.03;;;4.73;;
2622;SDS011;1321;48.690;9.022;2022-11-20T14:56:07;3.80;;;3.70;;
2622;SDS011;1321;48.690;9.022;2022-11-20T14:58:36;3.70;;;3.50;;
2622;SDS011;1321;48.690;9.022;2022-11-20T15:01:05;3.60;;;3.40;;
2622;SDS011;1321;48.690;9.022;2022-11-20T15:03:34;4.33;;;4.13;;
2622;SDS011;1321;48.690;9.022;2022-11-20T15:06:04;4.07;;;3.87;;
2622;SDS011;1321;48.690;9.022;2022-11-20T15:08:34;3.73;;;3.43;;
2622;SDS011;1321;48.690;9.022;2022-11-20T15:11:14;3.43;;;3.30;;
2622;SDS011;1321;48.690;9.022;2022-11-20T15:13:45;4.10;;;3.83;;
2622;SDS011;1321;48.690;9.022;2022-11-20T15:16:15;3.60;;;3.47;;
2622;SDS011;1321;48.690;9.022;2022-11-20T15:18:46;3.90;;;3.60;;
2622;SDS011;1321;48.690;9.022;2022-11-20T15:21:15;5.63;;;5.23;;
2622;SDS011;1321;48.690;9.022;2022-11-20T15:23:45;3.60;;;3.40;;
2622;SDS011;1321;48.690;9.022;2022-11-20T15:26:15;3.70;;;3.57;;
2622;SDS011;1321;48.690;9.022;2022-11-20T15:28:48;3.27;;;3.07;;
2622;SDS011;1321;48.690;9.022;2022-11-20T15:31:17;2.93;;;2.80;;
2622;SDS011;1321;48.690;9.022;2022-11-20T15:33:48;3.13;;;2.93;;
2622;SDS011;1321;48.690;9.022;2022-11-20T15:36:16;2.83;;;2.73;;
2622;SDS011;1321;48.690;9.022;2022-11-20T15:38:45;3.00;;;2.90;;
2622;SDS011;1321;48.690;9.022;2022-11-20T15:41:15;3.57;;;3.47;;
2622;SDS011;1321;48.690;9.022;2022-11-20T15:43:43;3.83;;;3.70;;
2622;SDS011;1321;48.690;9.022;2022-11-20T15:46:13;3.43;;;3.23;;
2622;SDS011;1321;48.690;9.022;2022-11-20T15:48:43;3.53;;;3.43;;
2622;SDS011;1321;48.690;9.022;2022-11-20T15:51:16;4.30;;;4.00;;
2622;SDS011;1321;48.690;9.022;2022-11-20T15:53:51;3.70;;;3.60;;
2622;SDS011;1321;48.690;9.022;2022-11-20T15:56:21;3.77;;;3.67;;
2622;SDS011;1321;48.690;9.022;2022-11-20T15:58:50;3.80;;;3.70;;